createdAt,value
2017-10-04T00:00:38.029Z,0
2017-10-04T00:01:18.578Z,0
2017-10-04T00:01:58.962Z,0
2017-10-04T00:02:39.392Z,0
2017-10-04T00:03:19.852Z,0
2017-10-04T00:04:00.320Z,0
2017-10-04T00:04:40.751Z,0
2017-10-04T00:05:21.220Z,0
2017-10-04T00:06:01.664Z,0
2017-10-04T00:06:42.146Z,0
2017-10-04T00:07:22.576Z,0
2017-10-04T00:08:02.995Z,0
2017-10-04T00:08:43.452Z,0
2017-10-04T00:09:23.901Z,0
2017-10-04T00:10:04.351Z,0
2017-10-04T00:10:44.855Z,0
2017-10-04T00:11:25.286Z,0
2017-10-04T00:12:07.005Z,0
2017-10-04T00:12:47.453Z,0
2017-10-04T00:13:27.945Z,0
2017-10-04T00:14:08.381Z,0
2017-10-04T00:16:46.528Z,0
2017-10-04T00:17:26.983Z,0
2017-10-04T00:18:07.445Z,0
2017-10-04T00:18:47.886Z,0
2017-10-04T00:19:28.357Z,0
2017-10-04T00:20:08.879Z,0
2017-10-04T00:20:49.350Z,0
2017-10-04T00:21:29.774Z,0
2017-10-04T00:22:10.276Z,0
2017-10-04T00:22:50.709Z,0
2017-10-04T00:23:31.149Z,0
2017-10-04T00:24:11.610Z,0
2017-10-04T00:24:52.114Z,0
2017-10-04T00:25:32.583Z,0
2017-10-04T00:26:13.139Z,0
2017-10-04T00:26:53.570Z,0
2017-10-04T00:27:34.044Z,0
2017-10-04T00:28:14.539Z,0
2017-10-04T00:28:54.977Z,0
2017-10-04T00:29:35.471Z,0
2017-10-04T00:30:15.954Z,0
2017-10-04T00:30:56.426Z,0
2017-10-04T00:31:36.900Z,0
2017-10-04T00:32:17.392Z,0
2017-10-04T00:32:57.855Z,0
2017-10-04T00:33:38.322Z,0
2017-10-04T00:34:18.813Z,0
2017-10-04T00:34:59.265Z,0
2017-10-04T00:35:39.719Z,0
2017-10-04T00:36:20.215Z,0
2017-10-04T00:37:00.681Z,0
2017-10-04T00:37:41.143Z,0
2017-10-04T00:38:21.651Z,0
2017-10-04T00:39:02.176Z,0
2017-10-04T00:39:42.642Z,0
2017-10-04T00:40:23.126Z,0
2017-10-04T00:41:03.598Z,0
2017-10-04T00:41:44.104Z,0
2017-10-04T00:42:24.580Z,0
2017-10-04T00:43:05.057Z,0
2017-10-04T00:43:45.559Z,0
2017-10-04T00:44:26.083Z,0
2017-10-04T00:45:06.573Z,0
2017-10-04T00:45:47.985Z,0
2017-10-04T00:46:28.455Z,0
2017-10-04T00:47:08.888Z,0
2017-10-04T00:47:49.364Z,0
2017-10-04T00:48:29.897Z,0
2017-10-04T00:50:42.704Z,0
2017-10-04T00:51:23.172Z,0
2017-10-04T00:52:03.705Z,0
2017-10-04T00:52:44.147Z,0
2017-10-04T00:53:24.590Z,0
2017-10-04T00:54:05.055Z,0
2017-10-04T00:54:45.519Z,0
2017-10-04T00:55:26.017Z,0
2017-10-04T00:58:04.196Z,0
2017-10-04T00:58:44.700Z,0
2017-10-04T00:59:25.152Z,0
2017-10-04T01:00:05.661Z,0
2017-10-04T01:00:46.092Z,0
2017-10-04T01:01:26.641Z,0
2017-10-04T01:02:07.123Z,0
2017-10-04T01:02:47.633Z,0
2017-10-04T01:03:28.120Z,0
2017-10-04T01:04:08.584Z,0
2017-10-04T01:04:49.082Z,0
2017-10-04T01:05:29.560Z,0
2017-10-04T01:06:10.047Z,0
2017-10-04T01:06:50.519Z,0
2017-10-04T01:07:30.979Z,0
2017-10-04T01:08:11.439Z,0
2017-10-04T01:08:51.959Z,0
2017-10-04T01:09:32.437Z,0
2017-10-04T01:10:12.917Z,0
2017-10-04T01:10:53.426Z,0
2017-10-04T01:11:33.909Z,0
2017-10-04T01:12:14.367Z,0
2017-10-04T01:12:54.765Z,0
2017-10-04T01:13:35.264Z,0
2017-10-04T01:14:15.715Z,0
2017-10-04T01:14:56.185Z,0
2017-10-04T01:15:37.413Z,0
2017-10-04T01:16:17.894Z,0
2017-10-04T01:16:58.373Z,0
2017-10-04T01:17:38.828Z,0
2017-10-04T01:18:19.290Z,0
2017-10-04T01:18:59.801Z,0
2017-10-04T01:19:40.196Z,0
2017-10-04T01:20:20.695Z,0
2017-10-04T01:21:01.117Z,0
2017-10-04T01:21:41.588Z,0
2017-10-04T01:22:22.036Z,0
2017-10-04T01:23:02.507Z,0
2017-10-04T01:23:43.021Z,0
2017-10-04T01:24:23.432Z,0
2017-10-04T01:25:03.889Z,0
2017-10-04T01:25:44.340Z,0
2017-10-04T01:26:24.810Z,0
2017-10-04T01:27:05.268Z,0
2017-10-04T01:27:45.681Z,0
2017-10-04T01:28:26.189Z,0
2017-10-04T01:29:06.656Z,0
2017-10-04T01:29:47.095Z,0
2017-10-04T01:30:27.563Z,0
2017-10-04T01:31:08.049Z,0
2017-10-04T01:31:48.511Z,0
2017-10-04T01:32:28.995Z,0
2017-10-04T01:33:09.446Z,0
2017-10-04T01:33:49.902Z,0
2017-10-04T01:34:30.376Z,0
2017-10-04T01:35:10.857Z,0
2017-10-04T01:37:49.187Z,0
2017-10-04T01:38:29.686Z,0
2017-10-04T01:39:10.184Z,0
2017-10-04T01:39:50.651Z,0
2017-10-04T01:40:31.113Z,0
2017-10-04T01:41:11.597Z,0
2017-10-04T01:41:52.063Z,0
2017-10-04T01:42:32.540Z,0
2017-10-04T01:43:13.068Z,0
2017-10-04T01:43:53.618Z,0
2017-10-04T01:44:34.091Z,0
2017-10-04T01:45:14.576Z,0
2017-10-04T01:45:55.077Z,0
2017-10-04T01:46:35.513Z,0
2017-10-04T01:47:16.027Z,0
2017-10-04T01:47:56.503Z,0
2017-10-04T01:48:36.981Z,0
2017-10-04T01:49:17.461Z,0
2017-10-04T01:49:57.938Z,0
2017-10-04T01:50:38.380Z,0
2017-10-04T01:51:18.881Z,0
2017-10-04T01:51:59.371Z,0
2017-10-04T01:52:39.826Z,0
2017-10-04T01:53:20.359Z,0
2017-10-04T01:54:00.830Z,0
2017-10-04T01:54:41.296Z,0
2017-10-04T01:55:21.763Z,0
2017-10-04T01:56:02.253Z,0
2017-10-04T01:56:42.722Z,0
2017-10-04T01:57:23.202Z,0
2017-10-04T01:58:03.657Z,0
2017-10-04T01:58:44.148Z,0
2017-10-04T01:59:24.583Z,0
2017-10-04T02:00:05.018Z,0
2017-10-04T02:00:45.540Z,0
2017-10-04T02:01:26.021Z,0
2017-10-04T02:02:06.519Z,0
2017-10-04T02:02:46.959Z,0
2017-10-04T02:03:27.468Z,0
2017-10-04T02:04:07.971Z,0
2017-10-04T02:04:48.472Z,0
2017-10-04T02:05:28.921Z,0
2017-10-04T02:06:09.373Z,0
2017-10-04T02:06:49.819Z,0
2017-10-04T02:07:30.272Z,0
2017-10-04T02:08:10.729Z,0
2017-10-04T02:08:51.192Z,0
2017-10-04T02:09:31.642Z,0
2017-10-04T02:10:12.098Z,0
2017-10-04T02:10:52.629Z,0
2017-10-04T02:11:33.120Z,0
2017-10-04T02:12:13.582Z,0
2017-10-04T02:12:54.035Z,0
2017-10-04T02:13:34.544Z,0
2017-10-04T02:14:14.941Z,0
2017-10-04T02:14:55.413Z,0
2017-10-04T02:15:35.882Z,0
2017-10-04T02:16:16.383Z,0
2017-10-04T02:16:56.891Z,0
2017-10-04T02:17:37.321Z,0
2017-10-04T02:18:17.794Z,0
2017-10-04T02:18:58.270Z,0
2017-10-04T02:19:38.753Z,0
2017-10-04T02:20:19.195Z,0
2017-10-04T02:20:59.657Z,0
2017-10-04T02:21:40.150Z,0
2017-10-04T02:23:58.054Z,0
2017-10-04T02:24:38.503Z,0
2017-10-04T02:25:18.958Z,0
2017-10-04T02:27:36.800Z,0
2017-10-04T02:28:17.312Z,0
2017-10-04T02:28:57.841Z,0
2017-10-04T02:29:38.322Z,0
2017-10-04T02:30:18.795Z,0
2017-10-04T02:30:59.238Z,0
2017-10-04T02:31:39.726Z,0
2017-10-04T02:32:20.153Z,0
2017-10-04T02:33:00.621Z,0
2017-10-04T02:33:41.069Z,0
2017-10-04T02:34:21.523Z,0
2017-10-04T02:35:01.978Z,0
2017-10-04T02:35:42.441Z,0
2017-10-04T02:36:22.913Z,0
2017-10-04T02:37:03.372Z,0
2017-10-04T02:37:43.816Z,0
2017-10-04T02:38:24.278Z,0
2017-10-04T02:39:04.742Z,0
2017-10-04T02:39:45.139Z,0
2017-10-04T02:40:25.577Z,0
2017-10-04T02:41:06.682Z,0
2017-10-04T02:43:44.766Z,0
2017-10-04T02:44:25.219Z,0
2017-10-04T02:45:05.710Z,0
2017-10-04T02:45:46.160Z,0
2017-10-04T02:46:26.617Z,0
2017-10-04T02:47:07.082Z,0
2017-10-04T02:47:47.532Z,0
2017-10-04T02:48:27.973Z,0
2017-10-04T02:49:08.428Z,0
2017-10-04T02:49:48.829Z,0
2017-10-04T02:50:29.239Z,0
2017-10-04T02:51:09.694Z,0
2017-10-04T02:51:50.140Z,0
2017-10-04T02:52:30.607Z,0
2017-10-04T02:53:11.084Z,0
2017-10-04T02:55:38.944Z,0
2017-10-04T02:56:19.434Z,0
2017-10-04T02:56:59.858Z,0
2017-10-04T02:57:40.283Z,0
2017-10-04T02:58:20.760Z,0
2017-10-04T02:59:01.187Z,0
2017-10-04T02:59:41.589Z,0
2017-10-04T03:00:22.072Z,0
2017-10-04T03:01:02.507Z,0
2017-10-04T03:01:43.027Z,0
2017-10-04T03:02:23.399Z,0
2017-10-04T03:03:03.856Z,0
2017-10-04T03:03:44.300Z,0
2017-10-04T03:04:24.740Z,0
2017-10-04T03:06:38.038Z,0
2017-10-04T03:07:18.564Z,0
2017-10-04T03:07:58.951Z,0
2017-10-04T03:08:39.398Z,0
2017-10-04T03:09:19.848Z,0
2017-10-04T03:10:00.320Z,0
2017-10-04T03:10:40.771Z,0
2017-10-04T03:11:21.196Z,0
2017-10-04T03:12:01.694Z,0
2017-10-04T03:12:42.880Z,0
2017-10-04T03:13:23.324Z,0
2017-10-04T03:14:03.740Z,0
2017-10-04T03:14:44.198Z,0
2017-10-04T03:15:24.616Z,0
2017-10-04T03:16:05.062Z,0
2017-10-04T03:16:45.511Z,0
2017-10-04T03:17:25.967Z,0
2017-10-04T03:18:06.411Z,0
2017-10-04T03:18:46.869Z,0
2017-10-04T03:19:27.268Z,0
2017-10-04T03:20:07.745Z,0
2017-10-04T03:20:48.158Z,0
2017-10-04T03:21:28.612Z,0
2017-10-04T03:22:09.069Z,0
2017-10-04T03:22:49.506Z,0
2017-10-04T03:23:29.975Z,0
2017-10-04T03:24:10.460Z,0
2017-10-04T03:24:50.901Z,0
2017-10-04T03:25:31.361Z,0
2017-10-04T03:26:11.843Z,0
2017-10-04T03:26:52.235Z,0
2017-10-04T03:27:33.688Z,0
2017-10-04T03:28:14.119Z,0
2017-10-04T03:28:54.563Z,0
2017-10-04T03:29:35.022Z,0
2017-10-04T03:30:15.476Z,0
2017-10-04T03:32:48.453Z,0
2017-10-04T03:33:28.895Z,0
2017-10-04T03:34:09.390Z,0
2017-10-04T03:34:49.899Z,0
2017-10-04T03:35:30.353Z,0
2017-10-04T03:36:10.786Z,0
2017-10-04T03:36:51.218Z,0
2017-10-04T03:37:31.651Z,0
2017-10-04T03:38:12.106Z,0
2017-10-04T03:38:52.556Z,0
2017-10-04T03:39:32.987Z,0
2017-10-04T03:40:13.434Z,0
2017-10-04T03:40:53.887Z,0
2017-10-04T03:41:34.351Z,0
2017-10-04T03:42:14.785Z,0
2017-10-04T03:42:55.234Z,0
2017-10-04T03:43:35.699Z,0
2017-10-04T03:44:16.068Z,0
2017-10-04T03:44:56.519Z,0
2017-10-04T03:45:36.970Z,0
2017-10-04T03:46:17.452Z,0
2017-10-04T03:46:57.899Z,0
2017-10-04T03:47:38.314Z,0
2017-10-04T03:48:18.748Z,0
2017-10-04T03:48:59.192Z,0
2017-10-04T03:49:39.654Z,0
2017-10-04T03:50:20.072Z,0
2017-10-04T03:51:00.533Z,0
2017-10-04T03:51:40.925Z,0
2017-10-04T03:53:53.648Z,0
2017-10-04T03:54:34.158Z,0
2017-10-04T03:55:14.592Z,0
2017-10-04T03:55:55.116Z,0
2017-10-04T03:56:35.521Z,0
2017-10-04T03:57:15.960Z,0
2017-10-04T03:57:56.526Z,0
2017-10-04T03:58:36.971Z,0
2017-10-04T03:59:17.423Z,0
2017-10-04T03:59:57.887Z,0
2017-10-04T04:00:38.346Z,0
2017-10-04T04:01:18.827Z,0
2017-10-04T04:01:59.259Z,0
2017-10-04T04:02:39.693Z,0
2017-10-04T04:03:20.172Z,0
2017-10-04T04:04:00.600Z,0
2017-10-04T04:04:41.073Z,0
2017-10-04T04:05:21.457Z,0
2017-10-04T04:06:01.926Z,0
2017-10-04T04:06:42.374Z,0
2017-10-04T04:07:22.850Z,0
2017-10-04T04:08:03.213Z,0
2017-10-04T04:08:43.658Z,0
2017-10-04T04:09:24.078Z,0
2017-10-04T04:10:04.515Z,0
2017-10-04T04:10:44.954Z,0
2017-10-04T04:11:25.417Z,0
2017-10-04T04:12:05.890Z,0
2017-10-04T04:12:46.328Z,0
2017-10-04T04:13:26.764Z,0
2017-10-04T04:14:07.242Z,0
2017-10-04T04:14:47.682Z,0
2017-10-04T04:15:28.108Z,0
2017-10-04T04:16:08.592Z,0
2017-10-04T04:16:49.012Z,0
2017-10-04T04:17:29.476Z,0
2017-10-04T04:18:09.920Z,0
2017-10-04T04:18:50.336Z,0
2017-10-04T04:19:30.772Z,0
2017-10-04T04:20:12.155Z,0
2017-10-04T04:20:52.621Z,0
2017-10-04T04:23:20.559Z,0
2017-10-04T04:24:01.043Z,0
2017-10-04T04:24:41.517Z,0
2017-10-04T04:25:21.963Z,0
2017-10-04T04:26:02.421Z,0
2017-10-04T04:26:42.963Z,0
2017-10-04T04:27:23.399Z,0
2017-10-04T04:28:03.875Z,0
2017-10-04T04:28:44.362Z,0
2017-10-04T04:29:24.822Z,0
2017-10-04T04:30:05.292Z,0
2017-10-04T04:30:45.708Z,0
2017-10-04T04:31:26.138Z,0
2017-10-04T04:32:06.589Z,0
2017-10-04T04:32:47.009Z,0
2017-10-04T04:33:27.466Z,0
2017-10-04T04:34:07.890Z,0
2017-10-04T04:34:48.321Z,0
2017-10-04T04:35:28.764Z,0
2017-10-04T04:36:09.204Z,0
2017-10-04T04:36:49.628Z,0
2017-10-04T04:37:30.131Z,0
2017-10-04T04:38:10.559Z,0
2017-10-04T04:38:51.028Z,0
2017-10-04T04:39:31.487Z,0
2017-10-04T04:40:11.896Z,0
2017-10-04T04:40:52.330Z,0
2017-10-04T04:41:32.754Z,0
2017-10-04T04:42:13.221Z,0
2017-10-04T04:42:53.678Z,0
2017-10-04T04:43:34.119Z,0
2017-10-04T04:44:14.535Z,0
2017-10-04T04:44:55.070Z,0
2017-10-04T04:45:35.507Z,0
2017-10-04T04:46:15.893Z,0
2017-10-04T04:46:56.307Z,0
2017-10-04T04:47:36.801Z,0
2017-10-04T04:48:17.162Z,0
2017-10-04T04:48:57.608Z,0
2017-10-04T04:49:38.123Z,0
2017-10-04T04:50:18.560Z,0
2017-10-04T04:50:59.018Z,0
2017-10-04T04:51:39.446Z,0
2017-10-04T04:52:19.888Z,0
2017-10-04T04:53:00.340Z,0
2017-10-04T04:53:40.786Z,0
2017-10-04T04:54:21.214Z,0
2017-10-04T04:55:01.671Z,0
2017-10-04T04:55:42.156Z,0
2017-10-04T04:56:22.567Z,0
2017-10-04T04:57:02.987Z,0
2017-10-04T04:57:43.456Z,0
2017-10-04T04:58:23.913Z,0
2017-10-04T04:59:04.314Z,0
2017-10-04T04:59:44.815Z,0
2017-10-04T05:00:25.298Z,0
2017-10-04T05:01:05.709Z,0
2017-10-04T05:01:46.177Z,0
2017-10-04T05:02:26.657Z,0
2017-10-04T05:03:07.090Z,0
2017-10-04T05:03:47.544Z,0
2017-10-04T05:04:27.971Z,0
2017-10-04T05:05:08.421Z,0
2017-10-04T05:05:48.868Z,0
2017-10-04T05:06:29.338Z,0
2017-10-04T05:07:09.786Z,0
2017-10-04T05:07:50.209Z,0
2017-10-04T05:08:30.629Z,0
2017-10-04T05:09:11.067Z,0
2017-10-04T05:09:51.538Z,0
2017-10-04T05:10:31.992Z,0
2017-10-04T05:11:12.444Z,0
2017-10-04T05:11:52.871Z,0
2017-10-04T05:12:33.293Z,0
2017-10-04T05:13:13.770Z,0
2017-10-04T05:13:54.176Z,0
2017-10-04T05:14:34.611Z,0
2017-10-04T05:15:15.045Z,0
2017-10-04T05:15:55.501Z,0
2017-10-04T05:16:35.977Z,0
2017-10-04T05:17:16.379Z,0
2017-10-04T05:19:54.440Z,0
2017-10-04T05:20:34.892Z,0
2017-10-04T05:21:15.375Z,0
2017-10-04T05:21:55.854Z,0
2017-10-04T05:22:36.296Z,0
2017-10-04T05:23:16.745Z,0
2017-10-04T05:23:57.203Z,0
2017-10-04T05:24:37.652Z,0
2017-10-04T05:25:18.109Z,0
2017-10-04T05:25:58.583Z,0
2017-10-04T05:26:38.982Z,0
2017-10-04T05:27:19.426Z,0
2017-10-04T05:27:59.889Z,0
2017-10-04T05:28:40.342Z,0
2017-10-04T05:29:20.785Z,0
2017-10-04T05:30:01.237Z,0
2017-10-04T05:30:41.695Z,5
2017-10-04T05:31:22.165Z,5
2017-10-04T05:32:02.629Z,5
2017-10-04T05:32:43.065Z,5
2017-10-04T05:34:55.750Z,5
2017-10-04T05:35:36.214Z,5
2017-10-04T05:36:16.716Z,5
2017-10-04T05:36:57.263Z,5
2017-10-04T05:37:37.780Z,5
2017-10-04T05:38:18.229Z,10
2017-10-04T05:38:58.747Z,10
2017-10-04T05:39:39.232Z,10
2017-10-04T05:40:19.703Z,10
2017-10-04T05:41:00.121Z,10
2017-10-04T05:41:40.720Z,10
2017-10-04T05:42:21.163Z,10
2017-10-04T05:43:01.574Z,15
2017-10-04T05:43:41.990Z,15
2017-10-04T05:44:22.467Z,15
2017-10-04T05:45:02.892Z,15
2017-10-04T05:45:43.363Z,20
2017-10-04T05:46:23.796Z,20
2017-10-04T05:47:04.265Z,20
2017-10-04T05:47:44.708Z,25
2017-10-04T05:48:26.053Z,25
2017-10-04T05:49:06.502Z,25
2017-10-04T05:49:47.017Z,30
2017-10-04T05:50:27.494Z,30
2017-10-04T05:51:07.942Z,30
2017-10-04T05:51:48.392Z,35
2017-10-04T05:52:28.892Z,35
2017-10-04T05:53:09.366Z,35
2017-10-04T05:53:49.770Z,35
2017-10-04T05:54:30.181Z,40
2017-10-04T05:55:10.633Z,40
2017-10-04T05:55:51.087Z,40
2017-10-04T05:56:31.594Z,35
2017-10-04T05:57:12.060Z,35
2017-10-04T05:57:52.501Z,35
2017-10-04T05:58:32.912Z,35
2017-10-04T05:59:13.362Z,35
2017-10-04T05:59:53.830Z,35
2017-10-04T06:00:34.352Z,35
2017-10-04T06:01:14.775Z,35
2017-10-04T06:01:55.260Z,35
2017-10-04T06:02:35.661Z,35
2017-10-04T06:03:16.134Z,35
2017-10-04T06:03:56.642Z,40
2017-10-04T06:04:37.043Z,40
2017-10-04T06:05:17.498Z,40
2017-10-04T06:05:57.962Z,40
2017-10-04T06:06:38.409Z,40
2017-10-04T06:07:18.844Z,40
2017-10-04T06:07:59.311Z,40
2017-10-04T06:08:39.801Z,45
2017-10-04T06:10:57.616Z,45
2017-10-04T06:11:38.057Z,45
2017-10-04T06:12:18.467Z,45
2017-10-04T06:12:58.966Z,50
2017-10-04T06:13:39.465Z,50
2017-10-04T06:14:19.904Z,50
2017-10-04T06:15:00.368Z,50
2017-10-04T06:15:40.813Z,50
2017-10-04T06:16:21.217Z,50
2017-10-04T06:17:01.640Z,50
2017-10-04T06:19:41.732Z,45
2017-10-04T06:22:19.802Z,45
2017-10-04T06:23:00.305Z,45
2017-10-04T06:23:40.792Z,45
2017-10-04T06:24:21.233Z,45
2017-10-04T06:25:01.720Z,50
2017-10-04T06:25:42.153Z,50
2017-10-04T06:26:22.555Z,50
2017-10-04T06:27:03.005Z,50
2017-10-04T06:27:43.432Z,55
2017-10-04T06:28:23.900Z,55
2017-10-04T06:29:04.345Z,55
2017-10-04T06:29:44.799Z,55
2017-10-04T06:30:25.242Z,60
2017-10-04T06:31:05.659Z,60
2017-10-04T06:31:46.112Z,60
2017-10-04T06:32:26.568Z,65
2017-10-04T06:33:07.020Z,65
2017-10-04T06:33:47.445Z,70
2017-10-04T06:34:27.898Z,70
2017-10-04T06:35:08.318Z,75
2017-10-04T06:35:48.762Z,75
2017-10-04T06:36:29.239Z,80
2017-10-04T06:37:09.677Z,85
2017-10-04T06:37:50.129Z,85
2017-10-04T06:38:30.583Z,90
2017-10-04T06:39:11.056Z,90
2017-10-04T06:39:51.488Z,95
2017-10-04T06:40:31.937Z,100
2017-10-04T06:41:12.410Z,105
2017-10-04T06:41:52.852Z,115
2017-10-04T06:44:10.632Z,125
2017-10-04T06:44:51.166Z,130
2017-10-04T06:45:31.602Z,130
2017-10-04T06:46:12.122Z,135
2017-10-04T06:46:52.565Z,135
2017-10-04T06:47:32.994Z,135
2017-10-04T06:48:13.417Z,135
2017-10-04T06:48:53.862Z,135
2017-10-04T06:49:34.322Z,135
2017-10-04T06:50:14.775Z,135
2017-10-04T06:50:55.284Z,135
2017-10-04T06:51:35.676Z,135
2017-10-04T06:52:16.116Z,135
2017-10-04T06:52:56.599Z,135
2017-10-04T06:53:37.054Z,135
2017-10-04T06:54:17.518Z,130
2017-10-04T06:54:57.979Z,130
2017-10-04T06:55:38.452Z,130
2017-10-04T06:58:06.469Z,120
2017-10-04T06:58:46.922Z,120
2017-10-04T06:59:27.394Z,120
2017-10-04T07:00:07.915Z,120
2017-10-04T07:00:48.376Z,120
2017-10-04T07:01:28.826Z,125
2017-10-04T07:02:09.301Z,125
2017-10-04T07:02:49.828Z,125
2017-10-04T07:03:30.273Z,130
2017-10-04T07:04:10.709Z,130
2017-10-04T07:04:51.170Z,130
2017-10-04T07:05:31.616Z,130
2017-10-04T07:06:12.120Z,130
2017-10-04T07:06:52.593Z,135
2017-10-04T07:09:26.014Z,135
2017-10-04T07:10:06.597Z,140
2017-10-04T07:10:47.111Z,140
2017-10-04T07:11:27.655Z,140
2017-10-04T07:12:08.242Z,140
2017-10-04T07:12:48.708Z,140
2017-10-04T07:13:29.215Z,140
2017-10-04T07:14:09.736Z,135
2017-10-04T07:14:50.183Z,135
2017-10-04T07:15:30.623Z,130
2017-10-04T07:16:11.070Z,130
2017-10-04T07:16:51.537Z,125
2017-10-04T07:17:32.706Z,125
2017-10-04T07:18:13.200Z,125
2017-10-04T07:18:53.714Z,125
2017-10-04T07:19:34.210Z,125
2017-10-04T07:20:14.612Z,130
2017-10-04T07:20:55.051Z,130
2017-10-04T07:21:35.583Z,140
2017-10-04T07:22:16.052Z,145
2017-10-04T07:22:56.480Z,150
2017-10-04T07:23:36.942Z,160
2017-10-04T07:24:17.409Z,170
2017-10-04T07:24:57.878Z,170
2017-10-04T07:25:38.340Z,180
2017-10-04T07:26:18.866Z,185
2017-10-04T07:26:59.277Z,190
2017-10-04T07:29:12.005Z,200
2017-10-04T07:29:52.517Z,200
2017-10-04T07:30:33.011Z,200
2017-10-04T07:31:13.444Z,205
2017-10-04T07:31:53.926Z,205
2017-10-04T07:32:34.393Z,205
2017-10-04T07:33:14.817Z,205
2017-10-04T07:33:55.259Z,210
2017-10-04T07:34:36.501Z,210
2017-10-04T07:35:16.935Z,210
2017-10-04T07:35:57.484Z,205
2017-10-04T07:36:37.926Z,205
2017-10-04T07:37:18.381Z,200
2017-10-04T07:37:58.857Z,200
2017-10-04T07:38:39.275Z,205
2017-10-04T07:39:19.771Z,205
2017-10-04T07:40:00.221Z,210
2017-10-04T07:40:40.688Z,205
2017-10-04T07:41:21.157Z,205
2017-10-04T07:42:01.590Z,210
2017-10-04T07:42:42.055Z,210
2017-10-04T07:43:22.571Z,210
2017-10-04T07:44:03.080Z,215
2017-10-04T07:44:43.563Z,215
2017-10-04T07:45:24.033Z,220
2017-10-04T07:46:04.463Z,215
2017-10-04T07:46:44.897Z,210
2017-10-04T07:47:25.389Z,210
2017-10-04T07:48:05.834Z,205
2017-10-04T07:48:46.318Z,195
2017-10-04T07:49:26.824Z,185
2017-10-04T07:50:07.350Z,180
2017-10-04T07:50:47.886Z,180
2017-10-04T07:51:28.378Z,180
2017-10-04T07:52:08.897Z,185
2017-10-04T07:52:49.396Z,195
2017-10-04T07:55:17.322Z,240
2017-10-04T07:55:57.796Z,245
2017-10-04T07:56:38.405Z,255
2017-10-04T07:57:18.756Z,260
2017-10-04T07:57:59.224Z,270
2017-10-04T07:58:39.687Z,275
2017-10-04T07:59:20.158Z,285
2017-10-04T08:00:00.613Z,295
2017-10-04T08:00:41.092Z,290
2017-10-04T08:01:21.632Z,290
2017-10-04T08:02:02.081Z,295
2017-10-04T08:02:42.552Z,305
2017-10-04T08:03:23.058Z,310
2017-10-04T08:04:03.532Z,310
2017-10-04T08:04:44.025Z,315
2017-10-04T08:05:24.468Z,325
2017-10-04T08:06:04.943Z,330
2017-10-04T08:06:45.382Z,340
2017-10-04T08:07:25.860Z,350
2017-10-04T08:08:06.342Z,350
2017-10-04T08:08:46.834Z,350
2017-10-04T08:09:27.339Z,345
2017-10-04T08:10:07.821Z,350
2017-10-04T08:10:48.306Z,355
2017-10-04T08:11:28.797Z,355
2017-10-04T08:12:09.315Z,355
2017-10-04T08:12:49.864Z,350
2017-10-04T08:13:30.355Z,345
2017-10-04T08:14:10.781Z,335
2017-10-04T08:16:48.980Z,310
2017-10-04T08:17:29.516Z,300
2017-10-04T08:18:09.983Z,290
2017-10-04T08:20:23.749Z,260
2017-10-04T08:21:04.233Z,255
2017-10-04T08:21:44.698Z,250
2017-10-04T08:22:25.196Z,250
2017-10-04T08:23:05.672Z,245
2017-10-04T08:23:46.095Z,235
2017-10-04T08:24:27.299Z,230
2017-10-04T08:25:07.726Z,225
2017-10-04T08:25:48.199Z,220
2017-10-04T08:26:28.644Z,215
2017-10-04T08:27:09.083Z,210
2017-10-04T08:27:49.509Z,215
2017-10-04T08:28:29.991Z,210
2017-10-04T08:29:10.458Z,210
2017-10-04T08:29:51.018Z,210
2017-10-04T08:30:31.537Z,205
2017-10-04T08:31:12.066Z,200
2017-10-04T08:31:52.570Z,200
2017-10-04T08:32:33.132Z,200
2017-10-04T08:33:13.601Z,205
2017-10-04T08:33:54.064Z,205
2017-10-04T08:34:34.503Z,210
2017-10-04T08:35:14.959Z,215
2017-10-04T08:35:55.450Z,220
2017-10-04T08:36:36.003Z,220
2017-10-04T08:37:16.498Z,225
2017-10-04T08:37:56.995Z,230
2017-10-04T08:38:37.431Z,235
2017-10-04T08:39:17.882Z,240
2017-10-04T08:39:58.364Z,250
2017-10-04T08:40:38.845Z,255
2017-10-04T08:41:19.298Z,260
2017-10-04T08:41:59.810Z,265
2017-10-04T08:42:40.280Z,265
2017-10-04T08:43:20.922Z,265
2017-10-04T08:44:01.483Z,270
2017-10-04T08:44:41.956Z,270
2017-10-04T08:45:22.440Z,285
2017-10-04T08:46:02.952Z,295
2017-10-04T08:46:43.451Z,310
2017-10-04T08:47:24.007Z,330
2017-10-04T08:48:04.467Z,350
2017-10-04T08:48:44.919Z,355
2017-10-04T08:49:25.369Z,355
2017-10-04T08:50:05.849Z,345
2017-10-04T08:50:46.371Z,335
2017-10-04T08:51:27.824Z,305
2017-10-04T08:52:08.281Z,280
2017-10-04T08:52:48.745Z,265
2017-10-04T08:53:29.254Z,260
2017-10-04T08:54:09.756Z,260
2017-10-04T08:54:50.256Z,265
2017-10-04T08:55:30.892Z,280
2017-10-04T08:56:11.475Z,300
2017-10-04T08:56:51.946Z,320
2017-10-04T08:57:32.421Z,335
2017-10-04T08:58:12.932Z,340
2017-10-04T08:58:53.442Z,340
2017-10-04T08:59:33.936Z,340
2017-10-04T09:00:14.467Z,345
2017-10-04T09:00:55.009Z,355
2017-10-04T09:01:35.473Z,375
2017-10-04T09:02:15.972Z,395
2017-10-04T09:02:56.477Z,410
2017-10-04T09:03:36.873Z,390
2017-10-04T09:04:17.323Z,385
2017-10-04T09:04:57.800Z,395
2017-10-04T09:05:38.265Z,390
2017-10-04T09:06:18.770Z,375
2017-10-04T09:06:59.268Z,375
2017-10-04T09:07:39.800Z,390
2017-10-04T09:10:13.017Z,455
2017-10-04T09:10:53.594Z,465
2017-10-04T09:11:34.111Z,490
2017-10-04T09:12:14.612Z,515
2017-10-04T09:12:55.147Z,550
2017-10-04T09:13:35.707Z,570
2017-10-04T09:14:16.181Z,570
2017-10-04T09:14:56.653Z,560
2017-10-04T09:15:37.165Z,540
2017-10-04T09:16:17.706Z,510
2017-10-04T09:18:45.745Z,405
2017-10-04T09:19:26.247Z,380
2017-10-04T09:20:06.688Z,360
2017-10-04T09:20:47.170Z,345
2017-10-04T09:21:27.590Z,330
2017-10-04T09:22:08.131Z,325
2017-10-04T09:22:48.685Z,315
2017-10-04T09:23:29.185Z,315
2017-10-04T09:24:09.820Z,310
2017-10-04T09:24:50.292Z,315
2017-10-04T09:25:30.757Z,320
2017-10-04T09:26:11.209Z,335
2017-10-04T09:26:51.661Z,355
2017-10-04T09:27:32.152Z,360
2017-10-04T09:28:12.577Z,370
2017-10-04T09:28:53.089Z,385
2017-10-04T09:29:33.609Z,405
2017-10-04T09:30:14.178Z,420
2017-10-04T09:30:54.663Z,420
2017-10-04T09:31:35.124Z,415
2017-10-04T09:32:15.677Z,415
2017-10-04T09:32:56.107Z,405
2017-10-04T09:35:29.256Z,355
2017-10-04T09:36:09.756Z,365
2017-10-04T09:36:50.224Z,385
2017-10-04T09:37:30.761Z,390
2017-10-04T09:38:11.234Z,415
2017-10-04T09:38:51.660Z,420
2017-10-04T09:39:32.181Z,405
2017-10-04T09:40:12.663Z,415
2017-10-04T09:40:53.190Z,420
2017-10-04T09:41:33.692Z,410
2017-10-04T09:42:14.320Z,420
2017-10-04T09:42:54.780Z,420
2017-10-04T09:43:35.269Z,425
2017-10-04T09:44:15.837Z,425
2017-10-04T09:44:56.335Z,425
2017-10-04T09:45:36.814Z,420
2017-10-04T09:46:17.361Z,435
2017-10-04T09:46:57.854Z,435
2017-10-04T09:47:38.314Z,450
2017-10-04T09:48:18.773Z,475
2017-10-04T09:48:59.322Z,480
2017-10-04T09:49:39.794Z,475
2017-10-04T09:50:20.341Z,460
2017-10-04T09:52:53.393Z,495
2017-10-04T09:53:33.918Z,500
2017-10-04T09:54:15.290Z,530
2017-10-04T09:54:55.728Z,555
2017-10-04T09:55:36.195Z,570
2017-10-04T09:56:16.671Z,605
2017-10-04T09:56:57.150Z,635
2017-10-04T09:57:37.597Z,675
2017-10-04T09:58:18.041Z,690
2017-10-04T09:58:58.513Z,710
2017-10-04T09:59:38.998Z,705
2017-10-04T10:00:19.513Z,760
2017-10-04T10:01:00.010Z,735
2017-10-04T10:01:40.505Z,710
2017-10-04T10:02:20.982Z,695
2017-10-04T10:03:01.495Z,740
2017-10-04T10:03:41.946Z,785
2017-10-04T10:04:22.494Z,775
2017-10-04T10:05:02.980Z,705
2017-10-04T10:05:43.457Z,680
2017-10-04T10:06:23.909Z,645
2017-10-04T10:07:04.447Z,640
2017-10-04T10:07:44.884Z,580
2017-10-04T10:08:25.374Z,560
2017-10-04T10:09:05.832Z,540
2017-10-04T10:09:46.340Z,540
2017-10-04T10:12:24.459Z,565
2017-10-04T10:13:04.898Z,580
2017-10-04T10:13:45.398Z,575
2017-10-04T10:14:25.877Z,580
2017-10-04T10:15:06.325Z,585
2017-10-04T10:15:46.797Z,615
2017-10-04T10:18:24.902Z,595
2017-10-04T10:19:05.528Z,595
2017-10-04T10:19:46.024Z,600
2017-10-04T10:20:26.505Z,605
2017-10-04T10:21:06.995Z,615
2017-10-04T10:21:47.462Z,605
2017-10-04T10:22:27.968Z,610
2017-10-04T10:23:08.415Z,615
2017-10-04T10:23:48.878Z,595
2017-10-04T10:24:29.347Z,585
2017-10-04T10:25:09.763Z,570
2017-10-04T10:25:50.254Z,550
2017-10-04T10:26:30.672Z,530
2017-10-04T10:27:11.142Z,510
2017-10-04T10:27:51.547Z,500
2017-10-04T10:28:31.995Z,495
2017-10-04T10:29:12.461Z,495
2017-10-04T10:29:52.901Z,500
2017-10-04T10:30:33.326Z,500
2017-10-04T10:31:13.824Z,500
2017-10-04T10:31:54.277Z,500
2017-10-04T10:32:34.766Z,490
2017-10-04T10:33:15.233Z,485
2017-10-04T10:33:55.740Z,475
2017-10-04T10:34:36.174Z,470